sensor_id;sensor_type;location;lat;lon;timestamp;pressure;altitude;pressure_sealevel;temperature;humidity
25944;BME280;13742;49.306;8.636;2024-03-29T00:00:10;98699.44;;;8.96;65.76
25944;BME280;13742;49.306;8.636;2024-03-29T00:01:10;98701.80;;;8.96;64.79
25944;BME280;13742;49.306;8.636;2024-03-29T00:02:10;98699.56;;;8.96;64.93
25944;BME280;13742;49.306;8.636;2024-03-29T00:03:10;98697.91;;;8.96;65.01
25944;BME280;13742;49.306;8.636;2024-03-29T00:04:10;98695.89;;;8.98;65.45
25944;BME280;13742;49.306;8.636;2024-03-29T00:05:10;98694.07;;;8.97;64.90
25944;BME280;13742;49.306;8.636;2024-03-29T00:06:10;98688.58;;;8.98;64.69
25944;BME280;13742;49.306;8.636;2024-03-29T00:07:10;98683.38;;;8.98;64.57
25944;BME280;13742;49.306;8.636;2024-03-29T00:08:10;98677.28;;;8.97;64.79
25944;BME280;13742;49.306;8.636;2024-03-29T00:09:10;98674.05;;;8.97;64.69
25944;BME280;13742;49.306;8.636;2024-03-29T00:10:10;98683.11;;;8.99;64.76
25944;BME280;13742;49.306;8.636;2024-03-29T00:11:10;98675.09;;;8.98;64.29
25944;BME280;13742;49.306;8.636;2024-03-29T00:12:10;98669.49;;;8.99;64.81
25944;BME280;13742;49.306;8.636;2024-03-29T00:13:10;98665.48;;;9.00;64.75
25944;BME280;13742;49.306;8.636;2024-03-29T00:14:10;98670.70;;;9.00;64.57
25944;BME280;13742;49.306;8.636;2024-03-29T00:15:10;98674.38;;;9.00;63.98
25944;BME280;13742;49.306;8.636;2024-03-29T00:16:11;98666.98;;;9.01;64.51
25944;BME280;13742;49.306;8.636;2024-03-29T00:17:10;98663.92;;;9.02;64.42
25944;BME280;13742;49.306;8.636;2024-03-29T00:18:10;98662.44;;;9.02;64.29
25944;BME280;13742;49.306;8.636;2024-03-29T00:19:10;98657.83;;;9.02;64.16
25944;BME280;13742;49.306;8.636;2024-03-29T00:20:11;98650.97;;;9.03;64.25
25944;BME280;13742;49.306;8.636;2024-03-29T00:21:10;98643.23;;;9.03;64.52
25944;BME280;13742;49.306;8.636;2024-03-29T00:22:10;98644.31;;;9.02;64.41
25944;BME280;13742;49.306;8.636;2024-03-29T00:23:10;98643.61;;;9.03;64.52
25944;BME280;13742;49.306;8.636;2024-03-29T00:24:10;98644.55;;;9.03;64.27
25944;BME280;13742;49.306;8.636;2024-03-29T00:25:10;98644.71;;;9.04;64.30
25944;BME280;13742;49.306;8.636;2024-03-29T00:26:10;98643.11;;;9.03;63.88
25944;BME280;13742;49.306;8.636;2024-03-29T00:27:10;98649.98;;;9.04;64.00
25944;BME280;13742;49.306;8.636;2024-03-29T00:28:10;98649.70;;;9.02;63.49
25944;BME280;13742;49.306;8.636;2024-03-29T00:29:10;98652.13;;;9.03;63.59
25944;BME280;13742;49.306;8.636;2024-03-29T00:30:10;98650.64;;;9.03;63.69
25944;BME280;13742;49.306;8.636;2024-03-29T00:31:10;98647.77;;;9.02;63.78
25944;BME280;13742;49.306;8.636;2024-03-29T00:32:10;98652.44;;;9.02;63.53
25944;BME280;13742;49.306;8.636;2024-03-29T00:33:10;98657.05;;;9.03;63.67
25944;BME280;13742;49.306;8.636;2024-03-29T00:34:10;98651.30;;;9.03;63.53
25944;BME280;13742;49.306;8.636;2024-03-29T00:35:10;98644.70;;;9.03;63.93
25944;BME280;13742;49.306;8.636;2024-03-29T00:36:10;98647.72;;;9.04;64.08
25944;BME280;13742;49.306;8.636;2024-03-29T00:37:10;98643.72;;;9.04;63.68
25944;BME280;13742;49.306;8.636;2024-03-29T00:38:10;98645.88;;;9.06;63.99
25944;BME280;13742;49.306;8.636;2024-03-29T00:39:11;98647.50;;;9.06;63.72
25944;BME280;13742;49.306;8.636;2024-03-29T00:40:10;98650.75;;;9.06;63.26
25944;BME280;13742;49.306;8.636;2024-03-29T00:41:10;98651.14;;;9.07;63.05
25944;BME280;13742;49.306;8.636;2024-03-29T00:42:15;98641.47;;;9.06;63.14
25944;BME280;13742;49.306;8.636;2024-03-29T00:43:10;98643.22;;;9.06;63.00
25944;BME280;13742;49.306;8.636;2024-03-29T00:44:10;98638.41;;;9.06;62.31
25944;BME280;13742;49.306;8.636;2024-03-29T00:45:10;98639.66;;;9.06;62.53
25944;BME280;13742;49.306;8.636;2024-03-29T00:46:10;98633.36;;;9.08;62.97
25944;BME280;13742;49.306;8.636;2024-03-29T00:47:10;98628.37;;;9.09;63.08
25944;BME280;13742;49.306;8.636;2024-03-29T00:48:10;98629.58;;;9.09;62.54
25944;BME280;13742;49.306;8.636;2024-03-29T00:49:10;98625.30;;;9.09;62.07
25944;BME280;13742;49.306;8.636;2024-03-29T00:50:10;98630.17;;;9.09;62.16
25944;BME280;13742;49.306;8.636;2024-03-29T00:51:10;98629.30;;;9.09;61.76
25944;BME280;13742;49.306;8.636;2024-03-29T00:52:10;98625.50;;;9.09;61.41
25944;BME280;13742;49.306;8.636;2024-03-29T00:53:10;98624.19;;;9.09;61.65
25944;BME280;13742;49.306;8.636;2024-03-29T00:54:10;98626.13;;;9.10;61.83
25944;BME280;13742;49.306;8.636;2024-03-29T00:55:10;98625.68;;;9.11;61.94
25944;BME280;13742;49.306;8.636;2024-03-29T00:56:10;98619.09;;;9.11;61.72
25944;BME280;13742;49.306;8.636;2024-03-29T00:57:13;98620.19;;;9.11;61.61
25944;BME280;13742;49.306;8.636;2024-03-29T00:58:10;98618.66;;;9.12;61.59
25944;BME280;13742;49.306;8.636;2024-03-29T00:59:10;98612.89;;;9.12;61.65
25944;BME280;13742;49.306;8.636;2024-03-29T01:00:10;98616.84;;;9.12;61.38
25944;BME280;13742;49.306;8.636;2024-03-29T01:01:10;98608.51;;;9.12;61.67
25944;BME280;13742;49.306;8.636;2024-03-29T01:02:10;98607.47;;;9.12;61.94
25944;BME280;13742;49.306;8.636;2024-03-29T01:03:10;98605.38;;;9.13;61.95
25944;BME280;13742;49.306;8.636;2024-03-29T01:04:10;98605.31;;;9.13;62.21
25944;BME280;13742;49.306;8.636;2024-03-29T01:05:10;98603.80;;;9.14;62.14
25944;BME280;13742;49.306;8.636;2024-03-29T01:06:10;98601.09;;;9.13;61.68
25944;BME280;13742;49.306;8.636;2024-03-29T01:07:10;98601.59;;;9.15;61.90
25944;BME280;13742;49.306;8.636;2024-03-29T01:08:10;98597.91;;;9.15;62.32
25944;BME280;13742;49.306;8.636;2024-03-29T01:09:11;98595.38;;;9.15;62.14
25944;BME280;13742;49.306;8.636;2024-03-29T01:10:10;98593.73;;;9.15;62.04
25944;BME280;13742;49.306;8.636;2024-03-29T01:11:10;98595.06;;;9.16;62.02
25944;BME280;13742;49.306;8.636;2024-03-29T01:12:10;98593.42;;;9.16;61.72
25944;BME280;13742;49.306;8.636;2024-03-29T01:13:10;98594.25;;;9.16;61.95
25944;BME280;13742;49.306;8.636;2024-03-29T01:14:10;98592.05;;;9.16;61.56
25944;BME280;13742;49.306;8.636;2024-03-29T01:15:10;98594.03;;;9.16;61.52
25944;BME280;13742;49.306;8.636;2024-03-29T01:16:10;98594.48;;;9.17;61.89
25944;BME280;13742;49.306;8.636;2024-03-29T01:17:10;98590.03;;;9.17;61.65
25944;BME280;13742;49.306;8.636;2024-03-29T01:18:10;98584.97;;;9.18;61.84
25944;BME280;13742;49.306;8.636;2024-03-29T01:19:10;98581.63;;;9.18;61.89
25944;BME280;13742;49.306;8.636;2024-03-29T01:20:11;98581.02;;;9.19;61.88
25944;BME280;13742;49.306;8.636;2024-03-29T01:21:10;98575.20;;;9.20;62.21
25944;BME280;13742;49.306;8.636;2024-03-29T01:22:10;98572.41;;;9.20;61.92
25944;BME280;13742;49.306;8.636;2024-03-29T01:23:10;98574.20;;;9.21;61.88
25944;BME280;13742;49.306;8.636;2024-03-29T01:24:10;98577.41;;;9.21;61.18
25944;BME280;13742;49.306;8.636;2024-03-29T01:25:12;98584.65;;;9.21;60.69
25944;BME280;13742;49.306;8.636;2024-03-29T01:26:13;98586.73;;;9.21;60.87
25944;BME280;13742;49.306;8.636;2024-03-29T01:27:10;98596.16;;;9.22;60.42
25944;BME280;13742;49.306;8.636;2024-03-29T01:28:10;98596.00;;;9.22;60.68
25944;BME280;13742;49.306;8.636;2024-03-29T01:29:11;98599.62;;;9.22;60.48
25944;BME280;13742;49.306;8.636;2024-03-29T01:30:10;98598.20;;;9.22;60.66
25944;BME280;13742;49.306;8.636;2024-03-29T01:31:10;98594.84;;;9.22;60.77
25944;BME280;13742;49.306;8.636;2024-03-29T01:32:10;98593.31;;;9.23;60.21
25944;BME280;13742;49.306;8.636;2024-03-29T01:33:10;98590.52;;;9.23;60.51
25944;BME280;13742;49.306;8.636;2024-03-29T01:34:10;98581.14;;;9.23;60.71
25944;BME280;13742;49.306;8.636;2024-03-29T01:35:10;98571.30;;;9.24;60.64
25944;BME280;13742;49.306;8.636;2024-03-29T01:36:10;98558.08;;;9.23;60.59
25944;BME280;13742;49.306;8.636;2024-03-29T01:37:10;98559.63;;;9.24;60.63
25944;BME280;13742;49.306;8.636;2024-03-29T01:38:10;98552.92;;;9.23;60.71
25944;BME280;13742;49.306;8.636;2024-03-29T01:39:14;98548.42;;;9.22;60.61
25944;BME280;13742;49.306;8.636;2024-03-29T01:40:10;98544.91;;;9.24;61.05
25944;BME280;13742;49.306;8.636;2024-03-29T01:41:10;98534.92;;;9.24;60.88
25944;BME280;13742;49.306;8.636;2024-03-29T01:42:10;98531.08;;;9.25;61.09
25944;BME280;13742;49.306;8.636;2024-03-29T01:43:10;98532.12;;;9.25;60.93
25944;BME280;13742;49.306;8.636;2024-03-29T01:44:11;98540.69;;;9.26;61.07
25944;BME280;13742;49.306;8.636;2024-03-29T01:45:10;98545.78;;;9.27;61.05
25944;BME280;13742;49.306;8.636;2024-03-29T01:46:10;98550.01;;;9.27;60.56
25944;BME280;13742;49.306;8.636;2024-03-29T01:47:10;98553.53;;;9.27;60.46
25944;BME280;13742;49.306;8.636;2024-03-29T01:48:10;98555.06;;;9.28;60.30
25944;BME280;13742;49.306;8.636;2024-03-29T01:49:10;98555.06;;;9.28;60.31
25944;BME280;13742;49.306;8.636;2024-03-29T01:50:10;98549.63;;;9.28;60.49
25944;BME280;13742;49.306;8.636;2024-03-29T01:51:10;98550.06;;;9.28;60.31
25944;BME280;13742;49.306;8.636;2024-03-29T01:52:10;98554.06;;;9.29;60.55
25944;BME280;13742;49.306;8.636;2024-03-29T01:53:10;98557.84;;;9.31;60.25
25944;BME280;13742;49.306;8.636;2024-03-29T01:54:10;98559.78;;;9.30;59.93
25944;BME280;13742;49.306;8.636;2024-03-29T01:55:10;98561.81;;;9.31;59.99
25944;BME280;13742;49.306;8.636;2024-03-29T01:56:10;98566.58;;;9.32;59.98
25944;BME280;13742;49.306;8.636;2024-03-29T01:57:10;98570.86;;;9.32;60.29
25944;BME280;13742;49.306;8.636;2024-03-29T01:58:10;98576.02;;;9.33;60.18
25944;BME280;13742;49.306;8.636;2024-03-29T01:59:12;98579.59;;;9.34;60.14
25944;BME280;13742;49.306;8.636;2024-03-29T02:00:10;98585.38;;;9.35;60.32
25944;BME280;13742;49.306;8.636;2024-03-29T02:01:10;98588.39;;;9.36;60.35
25944;BME280;13742;49.306;8.636;2024-03-29T02:02:11;98589.05;;;9.36;60.27
25944;BME280;13742;49.306;8.636;2024-03-29T02:03:13;98589.43;;;9.37;60.12
25944;BME280;13742;49.306;8.636;2024-03-29T02:04:10;98589.98;;;9.36;60.27
25944;BME280;13742;49.306;8.636;2024-03-29T02:05:10;98596.52;;;9.37;60.17
25944;BME280;13742;49.306;8.636;2024-03-29T02:06:10;98594.30;;;9.38;60.34
25944;BME280;13742;49.306;8.636;2024-03-29T02:07:10;98589.80;;;9.38;60.28
25944;BME280;13742;49.306;8.636;2024-03-29T02:08:10;98586.39;;;9.39;60.49
25944;BME280;13742;49.306;8.636;2024-03-29T02:09:10;98581.29;;;9.39;60.48
25944;BME280;13742;49.306;8.636;2024-03-29T02:10:10;98585.97;;;9.41;60.37
25944;BME280;13742;49.306;8.636;2024-03-29T02:11:10;98584.66;;;9.41;60.63
25944;BME280;13742;49.306;8.636;2024-03-29T02:12:10;98583.67;;;9.41;60.72
25944;BME280;13742;49.306;8.636;2024-03-29T02:13:10;98579.20;;;9.42;60.73
25944;BME280;13742;49.306;8.636;2024-03-29T02:14:10;98578.50;;;9.42;60.75
25944;BME280;13742;49.306;8.636;2024-03-29T02:15:14;98573.28;;;9.42;60.82
25944;BME280;13742;49.306;8.636;2024-03-29T02:16:10;98574.00;;;9.42;60.67
25944;BME280;13742;49.306;8.636;2024-03-29T02:17:10;98571.41;;;9.43;60.66
25944;BME280;13742;49.306;8.636;2024-03-29T02:18:10;98569.94;;;9.43;60.77
25944;BME280;13742;49.306;8.636;2024-03-29T02:19:10;98558.35;;;9.43;60.99
25944;BME280;13742;49.306;8.636;2024-03-29T02:20:10;98557.20;;;9.43;61.08
25944;BME280;13742;49.306;8.636;2024-03-29T02:21:10;98557.73;;;9.44;60.86
25944;BME280;13742;49.306;8.636;2024-03-29T02:22:10;98560.09;;;9.45;60.89
25944;BME280;13742;49.306;8.636;2024-03-29T02:23:11;98559.51;;;9.45;60.54
25944;BME280;13742;49.306;8.636;2024-03-29T02:24:10;98556.88;;;9.45;60.80
25944;BME280;13742;49.306;8.636;2024-03-29T02:25:10;98554.02;;;9.47;60.40
25944;BME280;13742;49.306;8.636;2024-03-29T02:26:10;98549.99;;;9.49;60.18
25944;BME280;13742;49.306;8.636;2024-03-29T02:27:10;98552.20;;;9.49;60.40
25944;BME280;13742;49.306;8.636;2024-03-29T02:28:10;98558.51;;;9.49;60.36
25944;BME280;13742;49.306;8.636;2024-03-29T02:29:10;98561.31;;;9.51;60.12
25944;BME280;13742;49.306;8.636;2024-03-29T02:30:13;98564.88;;;9.51;60.11
25944;BME280;13742;49.306;8.636;2024-03-29T02:31:11;98556.48;;;9.53;60.13
25944;BME280;13742;49.306;8.636;2024-03-29T02:32:10;98552.97;;;9.54;60.17
25944;BME280;13742;49.306;8.636;2024-03-29T02:33:10;98553.77;;;9.55;60.02
25944;BME280;13742;49.306;8.636;2024-03-29T02:34:10;98551.38;;;9.55;60.36
25944;BME280;13742;49.306;8.636;2024-03-29T02:35:10;98549.78;;;9.56;60.04
25944;BME280;13742;49.306;8.636;2024-03-29T02:36:11;98557.02;;;9.57;59.96
25944;BME280;13742;49.306;8.636;2024-03-29T02:37:10;98559.06;;;9.59;59.89
25944;BME280;13742;49.306;8.636;2024-03-29T02:38:10;98554.39;;;9.59;59.90
25944;BME280;13742;49.306;8.636;2024-03-29T02:39:10;98554.98;;;9.59;60.02
25944;BME280;13742;49.306;8.636;2024-03-29T02:40:10;98556.35;;;9.60;60.10
25944;BME280;13742;49.306;8.636;2024-03-29T02:41:10;98560.97;;;9.62;59.95
25944;BME280;13742;49.306;8.636;2024-03-29T02:42:10;98558.55;;;9.62;59.87
25944;BME280;13742;49.306;8.636;2024-03-29T02:43:10;98561.02;;;9.64;59.95
25944;BME280;13742;49.306;8.636;2024-03-29T02:44:10;98560.09;;;9.64;59.95
25944;BME280;13742;49.306;8.636;2024-03-29T02:45:10;98561.57;;;9.66;59.91
25944;BME280;13742;49.306;8.636;2024-03-29T02:46:10;98571.66;;;9.66;59.83
25944;BME280;13742;49.306;8.636;2024-03-29T02:47:10;98581.17;;;9.67;59.90
25944;BME280;13742;49.306;8.636;2024-03-29T02:48:10;98576.17;;;9.67;59.88
25944;BME280;13742;49.306;8.636;2024-03-29T02:49:10;98574.19;;;9.67;59.92
25944;BME280;13742;49.306;8.636;2024-03-29T02:50:13;98579.19;;;9.68;59.72
25944;BME280;13742;49.306;8.636;2024-03-29T02:51:10;98582.16;;;9.69;59.82
25944;BME280;13742;49.306;8.636;2024-03-29T02:52:10;98586.12;;;9.69;59.86
25944;BME280;13742;49.306;8.636;2024-03-29T02:53:10;98580.62;;;9.71;60.25
25944;BME280;13742;49.306;8.636;2024-03-29T02:54:10;98582.00;;;9.70;60.06
25944;BME280;13742;49.306;8.636;2024-03-29T02:55:10;98582.97;;;9.71;59.81
25944;BME280;13742;49.306;8.636;2024-03-29T02:56:10;98586.11;;;9.72;59.73
25944;BME280;13742;49.306;8.636;2024-03-29T02:57:10;98594.20;;;9.72;59.42
25944;BME280;13742;49.306;8.636;2024-03-29T02:58:10;98592.97;;;9.72;59.51
25944;BME280;13742;49.306;8.636;2024-03-29T02:59:10;98583.48;;;9.73;59.85
25944;BME280;13742;49.306;8.636;2024-03-29T03:00:10;98576.77;;;9.73;59.91
25944;BME280;13742;49.306;8.636;2024-03-29T03:01:10;98584.41;;;9.72;59.96
25944;BME280;13742;49.306;8.636;2024-03-29T03:02:10;98596.00;;;9.73;59.99
25944;BME280;13742;49.306;8.636;2024-03-29T03:03:10;98601.48;;;9.74;59.92
25944;BME280;13742;49.306;8.636;2024-03-29T03:04:10;98598.30;;;9.73;59.93
25944;BME280;13742;49.306;8.636;2024-03-29T03:05:10;98595.34;;;9.73;59.98
25944;BME280;13742;49.306;8.636;2024-03-29T03:06:10;98591.82;;;9.74;60.11
25944;BME280;13742;49.306;8.636;2024-03-29T03:07:15;98594.40;;;9.74;60.35
25944;BME280;13742;49.306;8.636;2024-03-29T03:08:15;98599.07;;;9.74;60.34
25944;BME280;13742;49.306;8.636;2024-03-29T03:09:15;98590.66;;;9.74;60.44
25944;BME280;13742;49.306;8.636;2024-03-29T03:10:15;98592.92;;;9.74;60.42
25944;BME280;13742;49.306;8.636;2024-03-29T03:11:10;98591.43;;;9.74;60.53
25944;BME280;13742;49.306;8.636;2024-03-29T03:12:10;98585.45;;;9.73;60.53
25944;BME280;13742;49.306;8.636;2024-03-29T03:13:10;98587.77;;;9.73;60.37
25944;BME280;13742;49.306;8.636;2024-03-29T03:14:10;98581.77;;;9.74;60.23
25944;BME280;13742;49.306;8.636;2024-03-29T03:15:10;98587.10;;;9.73;60.40
25944;BME280;13742;49.306;8.636;2024-03-29T03:16:10;98590.73;;;9.73;60.39
25944;BME280;13742;49.306;8.636;2024-03-29T03:17:10;98583.05;;;9.73;60.26
25944;BME280;13742;49.306;8.636;2024-03-29T03:18:10;98584.73;;;9.74;60.45
25944;BME280;13742;49.306;8.636;2024-03-29T03:19:10;98588.42;;;9.73;60.50
25944;BME280;13742;49.306;8.636;2024-03-29T03:20:11;98587.88;;;9.74;60.05
25944;BME280;13742;49.306;8.636;2024-03-29T03:21:10;98581.77;;;9.74;60.44
25944;BME280;13742;49.306;8.636;2024-03-29T03:22:10;98591.43;;;9.74;60.20
25944;BME280;13742;49.306;8.636;2024-03-29T03:23:10;98592.64;;;9.74;60.16
25944;BME280;13742;49.306;8.636;2024-03-29T03:24:11;98591.92;;;9.74;60.14
25944;BME280;13742;49.306;8.636;2024-03-29T03:25:10;98595.00;;;9.75;60.17
25944;BME280;13742;49.306;8.636;2024-03-29T03:26:10;98617.31;;;9.74;60.18
25944;BME280;13742;49.306;8.636;2024-03-29T03:27:10;98616.44;;;9.75;60.01
25944;BME280;13742;49.306;8.636;2024-03-29T03:28:10;98601.05;;;9.75;59.93
25944;BME280;13742;49.306;8.636;2024-03-29T03:29:10;98604.63;;;9.74;59.85
25944;BME280;13742;49.306;8.636;2024-03-29T03:30:10;98610.45;;;9.75;59.85
25944;BME280;13742;49.306;8.636;2024-03-29T03:31:10;98596.11;;;9.75;60.05
25944;BME280;13742;49.306;8.636;2024-03-29T03:32:10;98600.78;;;9.76;60.04
25944;BME280;13742;49.306;8.636;2024-03-29T03:33:10;98610.45;;;9.77;60.17
25944;BME280;13742;49.306;8.636;2024-03-29T03:34:10;98620.16;;;9.77;59.67
25944;BME280;13742;49.306;8.636;2024-03-29T03:35:10;98628.84;;;9.79;59.47
25944;BME280;13742;49.306;8.636;2024-03-29T03:36:10;98625.81;;;9.79;59.34
25944;BME280;13742;49.306;8.636;2024-03-29T03:37:10;98626.20;;;9.79;59.46
25944;BME280;13742;49.306;8.636;2024-03-29T03:38:10;98634.12;;;9.80;59.43
25944;BME280;13742;49.306;8.636;2024-03-29T03:39:10;98636.87;;;9.81;59.62
25944;BME280;13742;49.306;8.636;2024-03-29T03:40:10;98633.85;;;9.82;59.54
25944;BME280;13742;49.306;8.636;2024-03-29T03:41:10;98634.77;;;9.82;59.85
25944;BME280;13742;49.306;8.636;2024-03-29T03:42:10;98626.59;;;9.81;59.93
25944;BME280;13742;49.306;8.636;2024-03-29T03:43:10;98630.16;;;9.82;60.04
25944;BME280;13742;49.306;8.636;2024-03-29T03:44:10;98628.30;;;9.83;60.12
25944;BME280;13742;49.306;8.636;2024-03-29T03:45:10;98620.16;;;9.83;60.46
25944;BME280;13742;49.306;8.636;2024-03-29T03:46:10;98616.70;;;9.83;60.75
25944;BME280;13742;49.306;8.636;2024-03-29T03:47:10;98618.01;;;9.83;60.79
25944;BME280;13742;49.306;8.636;2024-03-29T03:48:10;98613.89;;;9.83;60.70
25944;BME280;13742;49.306;8.636;2024-03-29T03:49:10;98612.41;;;9.83;60.87
25944;BME280;13742;49.306;8.636;2024-03-29T03:50:10;98611.42;;;9.83;60.98
25944;BME280;13742;49.306;8.636;2024-03-29T03:51:10;98609.22;;;9.85;61.27
25944;BME280;13742;49.306;8.636;2024-03-29T03:52:10;98615.48;;;9.85;61.58
25944;BME280;13742;49.306;8.636;2024-03-29T03:53:10;98613.78;;;9.85;61.27
25944;BME280;13742;49.306;8.636;2024-03-29T03:54:10;98610.70;;;9.85;61.39
25944;BME280;13742;49.306;8.636;2024-03-29T03:55:10;98609.06;;;9.85;61.80
25944;BME280;13742;49.306;8.636;2024-03-29T03:56:10;98609.32;;;9.87;61.84
25944;BME280;13742;49.306;8.636;2024-03-29T03:57:10;98604.92;;;9.88;62.76
25944;BME280;13742;49.306;8.636;2024-03-29T03:58:10;98600.55;;;9.88;63.55
25944;BME280;13742;49.306;8.636;2024-03-29T03:59:10;98599.67;;;9.89;63.41
25944;BME280;13742;49.306;8.636;2024-03-29T04:00:10;98591.52;;;9.88;63.68
25944;BME280;13742;49.306;8.636;2024-03-29T04:01:10;98584.59;;;9.88;63.95
25944;BME280;13742;49.306;8.636;2024-03-29T04:02:10;98583.78;;;9.89;64.41
25944;BME280;13742;49.306;8.636;2024-03-29T04:03:10;98577.78;;;9.89;64.19
25944;BME280;13742;49.306;8.636;2024-03-29T04:04:10;98569.22;;;9.89;65.68
25944;BME280;13742;49.306;8.636;2024-03-29T04:05:10;98570.43;;;9.89;65.36
25944;BME280;13742;49.306;8.636;2024-03-29T04:06:10;98568.67;;;9.89;65.13
25944;BME280;13742;49.306;8.636;2024-03-29T04:07:10;98563.99;;;9.88;64.88
25944;BME280;13742;49.306;8.636;2024-03-29T04:08:10;98561.97;;;9.88;64.85
25944;BME280;13742;49.306;8.636;2024-03-29T04:09:10;98556.42;;;9.87;64.95
25944;BME280;13742;49.306;8.636;2024-03-29T04:10:10;98557.36;;;9.88;65.30
25944;BME280;13742;49.306;8.636;2024-03-29T04:11:10;98556.97;;;9.88;65.08
25944;BME280;13742;49.306;8.636;2024-03-29T04:12:10;98554.00;;;9.88;65.48
25944;BME280;13742;49.306;8.636;2024-03-29T04:13:10;98552.58;;;9.88;65.37
25944;BME280;13742;49.306;8.636;2024-03-29T04:14:10;98549.72;;;9.88;64.90
25944;BME280;13742;49.306;8.636;2024-03-29T04:15:10;98551.30;;;9.88;64.72
25944;BME280;13742;49.306;8.636;2024-03-29T04:16:10;98550.48;;;9.88;64.93
25944;BME280;13742;49.306;8.636;2024-03-29T04:17:10;98552.85;;;9.89;64.95
25944;BME280;13742;49.306;8.636;2024-03-29T04:18:10;98549.44;;;9.89;64.91
25944;BME280;13742;49.306;8.636;2024-03-29T04:19:10;98550.41;;;9.90;65.34
25944;BME280;13742;49.306;8.636;2024-03-29T04:20:10;98550.97;;;9.90;64.72
25944;BME280;13742;49.306;8.636;2024-03-29T04:21:10;98551.47;;;9.91;64.73
25944;BME280;13742;49.306;8.636;2024-03-29T04:22:10;98550.63;;;9.91;64.50
25944;BME280;13742;49.306;8.636;2024-03-29T04:23:10;98555.36;;;9.92;64.34
25944;BME280;13742;49.306;8.636;2024-03-29T04:24:10;98552.95;;;9.92;64.38
25944;BME280;13742;49.306;8.636;2024-03-29T04:25:10;98547.17;;;9.92;63.83
25944;BME280;13742;49.306;8.636;2024-03-29T04:26:10;98548.77;;;9.93;64.05
25944;BME280;13742;49.306;8.636;2024-03-29T04:27:10;98546.90;;;9.93;63.67
25944;BME280;13742;49.306;8.636;2024-03-29T04:28:10;98542.88;;;9.93;63.97
25944;BME280;13742;49.306;8.636;2024-03-29T04:29:10;98548.70;;;9.94;64.11
25944;BME280;13742;49.306;8.636;2024-03-29T04:30:10;98538.76;;;9.95;64.28
25944;BME280;13742;49.306;8.636;2024-03-29T04:31:11;98540.61;;;9.95;64.96
25944;BME280;13742;49.306;8.636;2024-03-29T04:32:10;98544.97;;;9.96;64.84
25944;BME280;13742;49.306;8.636;2024-03-29T04:33:10;98549.92;;;9.96;64.98
25944;BME280;13742;49.306;8.636;2024-03-29T04:34:10;98551.77;;;9.96;64.90
25944;BME280;13742;49.306;8.636;2024-03-29T04:35:10;98554.58;;;9.98;64.34
25944;BME280;13742;49.306;8.636;2024-03-29T04:36:10;98551.16;;;9.97;64.40
25944;BME280;13742;49.306;8.636;2024-03-29T04:37:10;98557.55;;;9.98;64.38
25944;BME280;13742;49.306;8.636;2024-03-29T04:38:10;98564.41;;;9.98;63.83
25944;BME280;13742;49.306;8.636;2024-03-29T04:39:10;98567.92;;;9.99;63.76
25944;BME280;13742;49.306;8.636;2024-03-29T04:40:10;98570.95;;;9.99;64.21
25944;BME280;13742;49.306;8.636;2024-03-29T04:41:10;98566.25;;;10.00;64.67
25944;BME280;13742;49.306;8.636;2024-03-29T04:42:10;98571.13;;;9.99;64.50
25944;BME280;13742;49.306;8.636;2024-03-29T04:43:10;98568.97;;;9.99;64.42
25944;BME280;13742;49.306;8.636;2024-03-29T04:44:11;98567.00;;;9.99;65.01
25944;BME280;13742;49.306;8.636;2024-03-29T04:45:10;98562.11;;;9.98;64.98
25944;BME280;13742;49.306;8.636;2024-03-29T04:46:10;98558.43;;;9.98;64.59
25944;BME280;13742;49.306;8.636;2024-03-29T04:47:10;98565.29;;;9.98;64.80
25944;BME280;13742;49.306;8.636;2024-03-29T04:48:10;98561.79;;;9.97;64.75
25944;BME280;13742;49.306;8.636;2024-03-29T04:49:10;98560.63;;;9.97;65.12
25944;BME280;13742;49.306;8.636;2024-03-29T04:50:10;98564.91;;;9.97;65.21
25944;BME280;13742;49.306;8.636;2024-03-29T04:51:10;98558.81;;;9.97;65.60
25944;BME280;13742;49.306;8.636;2024-03-29T04:52:10;98554.47;;;9.98;65.99
25944;BME280;13742;49.306;8.636;2024-03-29T04:53:10;98561.73;;;9.96;65.18
25944;BME280;13742;49.306;8.636;2024-03-29T04:54:10;98562.56;;;9.96;65.20
25944;BME280;13742;49.306;8.636;2024-03-29T04:55:10;98563.53;;;9.95;64.94
25944;BME280;13742;49.306;8.636;2024-03-29T04:56:10;98558.25;;;9.95;64.87
25944;BME280;13742;49.306;8.636;2024-03-29T04:57:12;98546.38;;;9.95;65.34
25944;BME280;13742;49.306;8.636;2024-03-29T04:58:10;98548.16;;;9.95;65.29
25944;BME280;13742;49.306;8.636;2024-03-29T04:59:10;98547.99;;;9.95;65.41
25944;BME280;13742;49.306;8.636;2024-03-29T05:00:10;98548.86;;;9.95;65.61
25944;BME280;13742;49.306;8.636;2024-03-29T05:01:10;98545.51;;;9.94;65.77
25944;BME280;13742;49.306;8.636;2024-03-29T05:02:10;98544.09;;;9.95;65.72
25944;BME280;13742;49.306;8.636;2024-03-29T05:03:10;98551.34;;;9.94;65.47
25944;BME280;13742;49.306;8.636;2024-03-29T05:04:10;98559.04;;;9.95;65.03
25944;BME280;13742;49.306;8.636;2024-03-29T05:05:10;98551.02;;;9.94;64.73
25944;BME280;13742;49.306;8.636;2024-03-29T05:06:10;98541.95;;;9.94;64.91
25944;BME280;13742;49.306;8.636;2024-03-29T05:07:10;98545.41;;;9.94;64.86
25944;BME280;13742;49.306;8.636;2024-03-29T05:08:10;98537.49;;;9.94;65.08
25944;BME280;13742;49.306;8.636;2024-03-29T05:09:11;98537.61;;;9.94;64.90
25944;BME280;13742;49.306;8.636;2024-03-29T05:10:10;98540.56;;;9.94;64.75
25944;BME280;13742;49.306;8.636;2024-03-29T05:11:14;98542.77;;;9.94;64.49
25944;BME280;13742;49.306;8.636;2024-03-29T05:12:10;98541.95;;;9.94;64.57
25944;BME280;13742;49.306;8.636;2024-03-29T05:13:10;98541.50;;;9.95;65.01
25944;BME280;13742;49.306;8.636;2024-03-29T05:14:10;98542.45;;;9.95;64.86
25944;BME280;13742;49.306;8.636;2024-03-29T05:15:10;98536.34;;;9.94;64.61
25944;BME280;13742;49.306;8.636;2024-03-29T05:16:10;98536.83;;;9.95;64.88
25944;BME280;13742;49.306;8.636;2024-03-29T05:17:10;98537.98;;;9.95;64.48
25944;BME280;13742;49.306;8.636;2024-03-29T05:18:10;98537.49;;;9.94;64.20
25944;BME280;13742;49.306;8.636;2024-03-29T05:19:10;98536.28;;;9.96;64.72
25944;BME280;13742;49.306;8.636;2024-03-29T05:20:10;98539.19;;;9.97;65.09
25944;BME280;13742;49.306;8.636;2024-03-29T05:21:10;98538.47;;;9.97;65.00